Time;durP1;ratioP1;P1;durP2;ratioP2;P2;SDS_P1;SDS_P2;PMS_P1;PMS_P2;Temp;Humidity;BMP_temperature;BMP_pressure;BME280_temperature;BME280_humidity;BME280_pressure;Samples;Min_cycle;Max_cycle;Signal;HPM_P1;HPM_P2
2021/08/03 00:01:52;;;;;;;6.57;1.70;;;;;;;16.03;100.00;100489.63;5144215;28;20026;-78
2021/08/03 00:04:25;;;;;;;4.93;1.60;;;;;;;16.18;100.00;100483.44;5144988;28;20026;-79
2021/08/03 00:06:57;;;;;;;5.22;1.70;;;;;;;16.27;100.00;100482.91;5144194;28;20109;-78
2021/08/03 00:09:30;;;;;;;3.70;1.63;;;;;;;16.30;100.00;100485.34;5137544;28;20514;-78
2021/08/03 00:12:01;;;;;;;5.55;1.60;;;;;;;16.47;100.00;100482.59;5143661;28;20042;-78
2021/08/03 00:14:32;;;;;;;4.25;1.63;;;;;;;16.42;100.00;100491.72;5145083;28;20042;-78
2021/08/03 00:17:02;;;;;;;4.97;1.80;;;;;;;16.40;100.00;100488.31;5144883;28;20030;-79
2021/08/03 00:19:33;;;;;;;4.80;1.80;;;;;;;16.19;100.00;100494.88;5144395;28;20114;-78
2021/08/03 00:22:04;;;;;;;5.50;1.70;;;;;;;16.05;100.00;100495.66;5144540;28;20035;-78
2021/08/03 00:24:35;;;;;;;6.50;1.73;;;;;;;15.97;100.00;100495.28;5145779;28;20446;-79
2021/08/03 00:27:06;;;;;;;3.95;1.60;;;;;;;16.09;100.00;100494.56;5144742;28;20031;-79
2021/08/03 00:29:37;;;;;;;5.30;1.70;;;;;;;16.12;100.00;100488.22;5143866;28;20035;-78
2021/08/03 00:32:08;;;;;;;6.28;1.75;;;;;;;16.27;100.00;100492.59;5144261;28;20373;-78
2021/08/03 00:34:47;;;;;;;7.90;1.70;;;;;;;16.31;100.00;100492.31;5146470;28;20153;-79
2021/08/03 00:37:18;;;;;;;4.93;1.50;;;;;;;16.35;100.00;100496.50;5140540;28;20034;-76
2021/08/03 00:39:48;;;;;;;5.15;1.67;;;;;;;16.35;100.00;100500.94;5147654;28;20092;-79
2021/08/03 00:42:19;;;;;;;3.20;1.60;;;;;;;16.32;100.00;100501.06;5152894;28;20041;-79
2021/08/03 00:44:51;;;;;;;4.25;1.50;;;;;;;16.33;100.00;100497.50;5154606;28;20053;-79
2021/08/03 00:47:21;;;;;;;3.80;1.60;;;;;;;16.37;100.00;100499.06;5158123;28;20041;-79
2021/08/03 00:49:51;;;;;;;7.38;1.75;;;;;;;16.39;100.00;100498.00;5153258;28;20031;-78
2021/08/03 00:52:22;;;;;;;4.25;1.50;;;;;;;16.40;100.00;100497.06;5153507;28;20021;-80
2021/08/03 00:54:52;;;;;;;4.20;1.63;;;;;;;16.53;100.00;100502.47;5148328;28;20675;-79
2021/08/03 00:57:23;;;;;;;6.65;1.50;;;;;;;16.52;100.00;100498.13;5157145;28;20460;-80
2021/08/03 00:59:53;;;;;;;4.93;1.60;;;;;;;16.17;100.00;100510.75;5157308;28;20484;-78
2021/08/03 01:02:24;;;;;;;3.53;1.53;;;;;;;16.21;100.00;100501.72;5151523;28;20049;-79
2021/08/03 01:04:54;;;;;;;6.63;1.77;;;;;;;16.27;100.00;100500.50;5153421;28;20344;-78
2021/08/03 01:07:33;;;;;;;4.43;1.60;;;;;;;16.28;100.00;100505.72;5152717;28;20031;-77
2021/08/03 01:10:12;;;;;;;3.70;1.60;;;;;;;16.30;99.88;100503.81;5149324;28;20026;-79
2021/08/03 01:12:54;;;;;;;6.50;1.60;;;;;;;16.42;98.39;100497.81;5146724;28;20069;-79
2021/08/03 01:15:53;;;;;;;3.97;1.23;;;;;;;16.42;98.34;100497.81;5147365;28;20027;-77
2021/08/03 01:18:40;;;;;;;5.30;1.67;;;;;;;16.32;99.08;100501.94;5152168;28;20060;-80
2021/08/03 01:21:35;;;;;;;5.30;1.40;;;;;;;16.37;99.01;100499.91;5151053;28;20034;-79
2021/08/03 01:24:16;;;;;;;9.77;1.88;;;;;;;16.18;100.00;100496.63;5149323;28;20677;-79
2021/08/03 01:27:01;;;;;;;4.43;1.50;;;;;;;16.17;100.00;100500.22;5149434;28;20042;-79
2021/08/03 01:29:33;;;;;;;6.20;1.60;;;;;;;16.22;100.00;100507.84;5143243;28;20081;-79
2021/08/03 01:32:08;;;;;;;6.65;1.80;;;;;;;16.33;100.00;100503.63;5147555;28;20401;-77
2021/08/03 01:34:45;;;;;;;6.85;1.60;;;;;;;16.27;98.73;100513.69;5147720;28;20034;-79
2021/08/03 01:37:18;;;;;;;5.65;1.35;;;;;;;16.48;97.80;100518.56;5146711;28;20058;-79
2021/08/03 01:39:55;;;;;;;4.15;1.33;;;;;;;16.49;96.44;100515.00;5149560;28;20023;-79
2021/08/03 01:42:27;;;;;;;5.47;1.50;;;;;;;15.87;100.00;100523.09;5145273;28;20118;-77
2021/08/03 01:45:00;;;;;;;7.68;1.40;;;;;;;15.89;100.00;100518.56;5142112;28;20029;-78
2021/08/03 01:47:31;;;;;;;4.75;1.70;;;;;;;15.91;100.00;100514.06;5145867;28;20030;-79
2021/08/03 01:50:03;;;;;;;5.28;1.77;;;;;;;15.66;100.00;100515.56;5147029;28;20031;-78
2021/08/03 01:52:34;;;;;;;6.15;1.50;;;;;;;15.42;100.00;100511.69;5143740;28;20025;-78
2021/08/03 01:55:07;;;;;;;6.45;1.60;;;;;;;15.64;100.00;100512.16;5144336;28;20023;-79
2021/08/03 01:57:41;;;;;;;5.65;1.70;;;;;;;15.51;100.00;100504.13;5147126;28;20639;-80
2021/08/03 02:00:12;;;;;;;4.43;1.70;;;;;;;15.51;100.00;100513.84;5147208;28;20085;-77
2021/08/03 02:02:44;;;;;;;5.38;1.83;;;;;;;15.41;100.00;100505.59;5147401;28;20544;-80
2021/08/03 02:05:16;;;;;;;4.10;1.27;;;;;;;15.62;100.00;100508.78;5145401;28;20030;-77
2021/08/03 02:07:47;;;;;;;3.30;1.50;;;;;;;15.66;100.00;100510.28;5147546;28;20039;-80
2021/08/03 02:10:20;;;;;;;3.30;1.50;;;;;;;15.56;100.00;100502.06;5147640;28;20023;-78
2021/08/03 02:12:50;;;;;;;4.40;1.60;;;;;;;15.46;100.00;100500.91;5145237;28;20485;-76
2021/08/03 02:15:21;;;;;;;4.20;1.70;;;;;;;15.61;100.00;100507.94;5146695;28;20037;-78
2021/08/03 02:17:51;;;;;;;6.72;1.50;;;;;;;15.76;100.00;100509.72;5146914;28;20159;-79
2021/08/03 02:20:22;;;;;;;3.08;1.52;;;;;;;15.89;100.00;100510.66;5145095;28;20553;-80
2021/08/03 02:22:53;;;;;;;3.55;1.60;;;;;;;15.98;100.00;100512.78;5146830;28;20445;-76
2021/08/03 02:25:23;;;;;;;4.47;1.30;;;;;;;15.89;100.00;100500.13;5145307;28;20042;-79
2021/08/03 02:27:55;;;;;;;4.15;1.50;;;;;;;15.63;100.00;100511.34;5145447;28;20030;-79
2021/08/03 02:30:26;;;;;;;6.30;1.58;;;;;;;15.67;100.00;100512.03;5148075;28;20440;-79
2021/08/03 02:33:14;;;;;;;6.05;1.50;;;;;;;15.56;100.00;100517.88;5154294;28;20023;-78
2021/08/03 02:35:53;;;;;;;5.05;1.60;;;;;;;15.40;100.00;100522.31;5151838;28;20026;-79
2021/08/03 02:38:26;;;;;;;5.03;1.75;;;;;;;15.26;100.00;100521.34;5152325;28;20054;-77
2021/08/03 02:40:56;;;;;;;4.25;1.50;;;;;;;15.41;100.00;100516.13;5154284;28;20118;-79
2021/08/03 02:43:27;;;;;;;4.00;1.45;;;;;;;15.43;100.00;100518.66;5151631;28;20050;-78
2021/08/03 02:46:03;;;;;;;6.55;1.55;;;;;;;15.42;100.00;100527.50;5149657;28;20106;-78
2021/08/03 02:48:35;;;;;;;5.28;1.60;;;;;;;15.36;100.00;100527.84;5143337;28;20023;-77
2021/08/03 02:51:06;;;;;;;7.22;1.73;;;;;;;15.32;100.00;100521.91;5144550;28;20022;-79
2021/08/03 02:53:43;;;;;;;4.72;1.70;;;;;;;15.36;100.00;100530.50;5146253;28;20034;-79
2021/08/03 02:56:17;;;;;;;4.32;1.40;;;;;;;15.46;100.00;100524.63;5147618;28;20034;-77
2021/08/03 02:58:52;;;;;;;2.78;1.52;;;;;;;15.73;100.00;100522.19;5144983;28;20768;-77
2021/08/03 03:01:27;;;;;;;5.60;1.70;;;;;;;15.70;100.00;100522.38;5145091;28;20400;-79
2021/08/03 03:04:14;;;;;;;4.43;1.53;;;;;;;15.84;100.00;100525.09;5140578;28;20794;-80
2021/08/03 03:06:51;;;;;;;5.07;1.67;;;;;;;15.67;100.00;100523.41;5146446;28;20041;-78
2021/08/03 03:09:27;;;;;;;6.32;1.63;;;;;;;15.76;100.00;100522.88;5147951;28;20175;-78
2021/08/03 03:11:57;;;;;;;4.20;1.60;;;;;;;15.97;100.00;100519.00;5143439;28;20053;-79
2021/08/03 03:14:28;;;;;;;3.00;1.30;;;;;;;16.05;100.00;100524.66;5147203;28;20038;-80
2021/08/03 03:17:00;;;;;;;5.80;1.40;;;;;;;16.05;100.00;100524.66;5144945;28;20034;-78
2021/08/03 03:19:35;;;;;;;3.03;1.20;;;;;;;16.07;100.00;100527.22;5144548;28;20042;-78
2021/08/03 03:22:07;;;;;;;6.20;1.65;;;;;;;15.95;100.00;100520.00;5144873;28;20031;-79
2021/08/03 03:24:38;;;;;;;3.13;1.33;;;;;;;16.05;100.00;100531.75;5146960;28;20401;-79
2021/08/03 03:27:10;;;;;;;6.35;1.70;;;;;;;15.78;100.00;100522.78;5148352;28;20034;-77
2021/08/03 03:29:41;;;;;;;4.80;1.70;;;;;;;15.75;100.00;100525.59;5145864;28;20425;-79
2021/08/03 03:32:11;;;;;;;6.45;1.77;;;;;;;15.52;100.00;100521.63;5144851;28;20034;-78
2021/08/03 03:34:42;;;;;;;4.80;1.92;;;;;;;15.28;100.00;100517.72;5145659;28;20023;-77
2021/08/03 03:37:13;;;;;;;5.18;1.90;;;;;;;15.14;100.00;100517.63;5144832;28;20038;-76
2021/08/03 03:39:44;;;;;;;4.07;1.50;;;;;;;15.26;100.00;100516.09;5148135;28;20425;-79
2021/08/03 03:42:16;;;;;;;4.20;1.65;;;;;;;15.40;100.00;100511.78;5146943;28;20023;-79
2021/08/03 03:44:46;;;;;;;6.78;1.83;;;;;;;15.35;100.00;100521.72;5146131;28;20042;-79
2021/08/03 03:47:23;;;;;;;4.55;1.70;;;;;;;15.43;100.00;100527.44;5137806;28;20860;-77
2021/08/03 03:50:01;;;;;;;4.38;1.63;;;;;;;15.40;100.00;100530.22;5136744;28;20155;-79
2021/08/03 03:52:40;;;;;;;4.72;1.90;;;;;;;15.35;100.00;100527.00;5137567;28;20049;-78
2021/08/03 03:55:18;;;;;;;3.17;1.50;;;;;;;15.27;100.00;100526.56;5145431;28;20093;-79
2021/08/03 03:57:49;;;;;;;8.02;1.80;;;;;;;15.26;100.00;100540.66;5146822;28;20061;-79
2021/08/03 04:00:21;;;;;;;5.20;1.80;;;;;;;15.44;100.00;100531.75;5145348;28;20640;-79
2021/08/03 04:02:53;;;;;;;5.97;1.92;;;;;;;15.33;100.00;100528.88;5145599;28;20042;-80
2021/08/03 04:05:25;;;;;;;3.22;1.63;;;;;;;15.16;100.00;100536.81;5145573;28;20078;-78
2021/08/03 04:07:55;;;;;;;3.83;1.70;;;;;;;15.28;100.00;100540.56;5144249;28;20096;-79
2021/08/03 04:10:32;;;;;;;7.45;2.00;;;;;;;15.26;100.00;100542.41;5142807;28;20035;-78
2021/08/03 04:13:03;;;;;;;6.50;2.10;;;;;;;15.15;100.00;100537.75;5142453;28;20033;-78
2021/08/03 04:15:34;;;;;;;4.20;1.60;;;;;;;15.13;100.00;100536.97;5146405;28;20711;-79
2021/08/03 04:18:05;;;;;;;7.03;1.80;;;;;;;15.33;100.00;100543.84;5149323;28;20026;-76
2021/08/03 04:20:35;;;;;;;5.30;2.08;;;;;;;15.21;100.00;100533.94;5148644;28;20031;-79
2021/08/03 04:23:05;;;;;;;3.30;1.73;;;;;;;15.25;100.00;100536.31;5148948;28;20405;-79
2021/08/03 04:25:35;;;;;;;6.55;1.80;;;;;;;15.21;100.00;100541.84;5151800;28;20038;-80
2021/08/03 04:28:07;;;;;;;7.30;1.90;;;;;;;15.11;100.00;100532.72;5149887;28;20022;-79
2021/08/03 04:30:38;;;;;;;6.40;1.90;;;;;;;15.26;100.00;100530.13;5149361;28;20053;-79
2021/08/03 04:33:08;;;;;;;5.18;1.73;;;;;;;15.37;100.00;100525.13;5147581;28;20023;-79
2021/08/03 04:35:38;;;;;;;5.72;1.75;;;;;;;15.21;100.00;100529.50;5149417;28;20039;-78
2021/08/03 04:38:09;;;;;;;3.65;1.80;;;;;;;15.19;100.00;100530.53;5148781;28;20058;-78
2021/08/03 04:40:39;;;;;;;6.35;1.83;;;;;;;15.27;100.00;100538.84;5152142;28;20035;-77
2021/08/03 04:43:09;;;;;;;4.25;1.63;;;;;;;15.29;100.00;100532.63;5148621;28;20110;-79
2021/08/03 04:45:40;;;;;;;5.35;1.60;;;;;;;15.36;100.00;100526.06;5149158;28;20637;-80
2021/08/03 04:48:13;;;;;;;4.43;1.77;;;;;;;15.40;100.00;100530.22;5143811;28;20022;-80
2021/08/03 04:50:43;;;;;;;4.47;1.65;;;;;;;15.38;100.00;100529.44;5148556;28;20023;-78
2021/08/03 04:53:13;;;;;;;3.80;1.77;;;;;;;15.58;100.00;100518.66;5147585;28;20029;-77
2021/08/03 04:55:44;;;;;;;3.38;1.67;;;;;;;15.75;100.00;100531.72;5149898;28;20026;-78
2021/08/03 04:58:14;;;;;;;4.32;1.67;;;;;;;15.82;100.00;100533.06;5148751;28;20606;-79
2021/08/03 05:00:44;;;;;;;10.70;1.58;;;;;;;15.86;100.00;100541.66;5143903;28;20046;-79
2021/08/03 05:03:15;;;;;;;5.82;1.73;;;;;;;15.60;100.00;100527.34;5148456;28;20035;-79
2021/08/03 05:05:45;;;;;;;4.55;1.63;;;;;;;15.43;100.00;100529.19;5146305;28;20037;-80
2021/08/03 05:08:15;;;;;;;6.10;1.58;;;;;;;15.53;100.00;100531.22;5146631;28;20528;-79
2021/08/03 05:10:46;;;;;;;3.58;1.40;;;;;;;15.67;100.00;100535.75;5151397;28;20059;-78
2021/08/03 05:13:16;;;;;;;5.20;1.65;;;;;;;15.70;100.00;100528.50;5148666;28;20043;-78
2021/08/03 05:15:48;;;;;;;4.60;1.70;;;;;;;15.89;100.00;100534.41;5146880;28;20114;-79
2021/08/03 05:18:19;;;;;;;6.30;1.55;;;;;;;15.67;100.00;100525.19;5147651;28;20504;-80
2021/08/03 05:20:49;;;;;;;4.72;1.50;;;;;;;15.85;100.00;100527.59;5147817;28;20045;-76
2021/08/03 05:23:19;;;;;;;4.05;1.92;;;;;;;16.48;100.00;100526.50;5146930;28;20022;-81
2021/08/03 05:25:50;;;;;;;5.15;1.30;;;;;;;19.06;96.57;100518.00;5149579;28;20501;-79
2021/08/03 05:28:20;;;;;;;3.47;1.10;;;;;;;19.35;92.54;100530.91;5146994;28;20030;-80
2021/08/03 05:30:50;;;;;;;4.07;1.05;;;;;;;19.04;89.54;100523.44;5148279;28;20286;-80
2021/08/03 05:33:21;;;;;;;2.67;1.30;;;;;;;18.58;94.87;100529.41;5147404;28;20027;-79
2021/08/03 05:35:51;;;;;;;3.67;1.13;;;;;;;18.19;96.91;100531.22;5149342;28;20101;-80
2021/08/03 05:38:21;;;;;;;3.80;1.25;;;;;;;17.90;97.85;100540.25;5149013;28;20645;-81
2021/08/03 05:40:52;;;;;;;5.68;1.30;;;;;;;17.69;100.00;100539.84;5149388;28;20033;-80
2021/08/03 05:43:22;;;;;;;5.07;1.40;;;;;;;17.41;100.00;100544.38;5144390;28;20818;-81
2021/08/03 05:45:52;;;;;;;5.33;1.40;;;;;;;17.76;99.73;100551.75;5146959;28;20094;-79
2021/08/03 05:48:22;;;;;;;3.55;1.40;;;;;;;17.14;100.00;100556.66;5147428;28;20278;-77
2021/08/03 05:50:53;;;;;;;3.75;1.50;;;;;;;17.26;100.00;100551.47;5146794;28;20026;-77
2021/08/03 05:53:25;;;;;;;4.18;1.50;;;;;;;17.26;100.00;100556.75;5146635;28;20045;-77
2021/08/03 05:55:56;;;;;;;4.95;1.50;;;;;;;17.31;100.00;100557.28;5149680;28;20524;-78
2021/08/03 05:58:26;;;;;;;4.03;1.50;;;;;;;17.17;100.00;100553.81;5148680;28;20039;-79
2021/08/03 06:00:56;;;;;;;2.72;1.30;;;;;;;17.23;100.00;100556.06;5141809;28;20692;-80
2021/08/03 06:03:26;;;;;;;4.90;1.80;;;;;;;17.06;100.00;100549.22;5144521;28;20038;-79
2021/08/03 06:05:57;;;;;;;3.92;1.58;;;;;;;16.84;100.00;100548.84;5148291;28;20062;-81
2021/08/03 06:08:31;;;;;;;2.50;1.20;;;;;;;16.64;100.00;100545.72;5148923;28;20026;-79
2021/08/03 06:11:02;;;;;;;6.30;1.63;;;;;;;16.95;100.00;100551.66;5145593;28;20027;-80
2021/08/03 06:13:35;;;;;;;3.42;1.45;;;;;;;17.89;100.00;100552.63;5147698;28;20054;-79
2021/08/03 06:16:06;;;;;;;4.70;1.60;;;;;;;18.29;94.33;100550.84;5147769;28;20023;-79
2021/08/03 06:18:37;;;;;;;4.60;1.48;;;;;;;18.52;94.16;100547.50;5146059;28;20026;-80
2021/08/03 06:21:08;;;;;;;5.68;1.80;;;;;;;18.76;92.69;100558.09;5144006;28;20019;-79
2021/08/03 06:23:39;;;;;;;5.40;1.80;;;;;;;17.98;96.89;100559.94;5146661;28;20030;-79
2021/08/03 06:26:10;;;;;;;5.95;1.77;;;;;;;18.50;92.25;100549.41;5148456;28;20031;-79
2021/08/03 06:28:47;;;;;;;4.00;2.03;;;;;;;17.98;95.06;100557.31;5147666;28;20035;-79
2021/08/03 06:31:18;;;;;;;3.63;1.80;;;;;;;17.85;95.21;100553.75;5145616;28;20026;-81
2021/08/03 06:33:49;;;;;;;5.45;2.00;;;;;;;17.59;98.44;100554.63;5146573;28;20292;-78
2021/08/03 06:36:20;;;;;;;4.22;1.88;;;;;;;18.54;96.47;100540.31;5145714;28;20505;-79
2021/08/03 06:38:50;;;;;;;4.35;1.85;;;;;;;18.55;93.87;100549.94;5147554;28;20113;-78
2021/08/03 06:41:31;;;;;;;5.15;2.00;;;;;;;18.55;93.48;100547.28;5146901;28;20023;-77
2021/08/03 06:44:12;;;;;;;5.00;2.05;;;;;;;18.08;97.10;100550.47;5143734;28;20022;-78
2021/08/03 06:46:45;;;;;;;6.80;2.33;;;;;;;18.41;93.85;100548.25;5148245;28;20045;-78
2021/08/03 06:49:17;;;;;;;6.03;2.03;;;;;;;18.79;93.38;100544.63;5145678;28;20087;-80
2021/08/03 06:51:47;;;;;;;4.65;1.73;;;;;;;19.30;92.59;100537.50;5145833;28;20572;-80
2021/08/03 06:54:21;;;;;;;4.60;2.10;;;;;;;20.13;89.56;100542.78;5149102;28;20027;-78
2021/08/03 06:56:55;;;;;;;4.72;2.00;;;;;;;21.26;83.75;100540.91;5150917;28;20029;-79
2021/08/03 06:59:29;;;;;;;6.80;1.98;;;;;;;21.92;80.54;100540.78;5150523;28;20037;-81
2021/08/03 07:02:07;;;;;;;3.97;1.80;;;;;;;21.95;76.30;100545.88;5141816;28;20631;-79
2021/08/03 07:04:59;;;;;;;4.28;1.77;;;;;;;20.89;80.46;100542.97;5143161;28;20608;-81
2021/08/03 07:07:30;;;;;;;3.30;1.77;;;;;;;21.15;78.74;100543.56;5142226;28;20647;-81
2021/08/03 07:10:03;;;;;;;3.85;1.85;;;;;;;21.07;77.79;100549.50;5148472;28;20014;-79
2021/08/03 07:12:34;;;;;;;4.93;1.90;;;;;;;21.73;76.04;100540.63;5146975;28;20061;-80
2021/08/03 07:15:04;;;;;;;4.18;1.90;;;;;;;21.71;79.92;100546.06;5147454;28;20385;-81
2021/08/03 07:17:37;;;;;;;3.45;1.73;;;;;;;20.51;81.77;100548.69;5147372;28;20251;-80
2021/08/03 07:20:10;;;;;;;4.60;1.95;;;;;;;21.10;80.76;100551.06;5145527;28;20037;-81
2021/08/03 07:22:41;;;;;;;5.57;1.90;;;;;;;20.82;81.12;100549.72;5147975;28;20027;-80
2021/08/03 07:25:12;;;;;;;4.95;2.00;;;;;;;20.45;84.57;100552.66;5147083;28;20480;-80
2021/08/03 07:27:42;;;;;;;5.50;1.77;;;;;;;21.56;78.42;100541.13;5147393;28;20098;-78
2021/08/03 07:30:16;;;;;;;4.97;2.00;;;;;;;22.04;75.24;100543.28;5146223;28;20114;-80
2021/08/03 07:32:46;;;;;;;4.43;1.70;;;;;;;21.73;77.26;100541.44;5150006;28;20102;-79
2021/08/03 07:35:16;;;;;;;3.43;1.57;;;;;;;21.74;74.93;100539.66;5149659;28;20524;-81
2021/08/03 07:37:47;;;;;;;4.37;1.70;;;;;;;21.42;77.69;100536.91;5151348;28;20278;-78
2021/08/03 07:40:17;;;;;;;4.05;1.90;;;;;;;20.66;80.09;100547.50;5153242;28;20026;-79
2021/08/03 07:42:47;;;;;;;3.17;1.60;;;;;;;22.45;77.80;100534.50;5149867;28;20092;-81
2021/08/03 07:45:18;;;;;;;3.70;1.60;;;;;;;23.18;73.29;100536.88;5151929;28;20096;-82
2021/08/03 07:47:48;;;;;;;4.28;1.40;;;;;;;22.82;73.34;100540.06;5151494;28;20282;-80
2021/08/03 07:50:19;;;;;;;4.10;1.77;;;;;;;23.60;71.11;100537.56;5153253;28;20525;-81
2021/08/03 07:52:49;;;;;;;5.20;1.60;;;;;;;23.17;74.07;100532.53;5158552;28;20042;-77
2021/08/03 07:55:20;;;;;;;3.83;1.30;;;;;;;24.36;68.13;100532.28;5156301;28;20037;-79
2021/08/03 07:57:50;;;;;;;3.70;1.38;;;;;;;23.71;68.31;100530.28;5155407;28;20513;-79
2021/08/03 08:00:20;;;;;;;2.53;1.10;;;;;;;27.07;62.13;100524.63;5154502;28;20106;-81
2021/08/03 08:02:51;;;;;;;3.28;1.10;;;;;;;25.89;67.32;100526.19;5161134;28;20656;-81
2021/08/03 08:05:21;;;;;;;4.43;1.02;;;;;;;25.53;63.33;100516.41;5163245;28;20524;-82
2021/08/03 08:07:58;;;;;;;3.60;1.10;;;;;;;28.33;58.54;100519.75;5158119;28;20370;-80
2021/08/03 08:10:28;;;;;;;3.78;1.20;;;;;;;26.43;61.09;100520.63;5147718;28;20700;-79
2021/08/03 08:12:58;;;;;;;2.72;1.08;;;;;;;27.53;60.36;100513.38;5153617;28;20050;-80
2021/08/03 08:15:29;;;;;;;4.50;1.23;;;;;;;25.92;63.27;100526.75;5154480;28;20034;-80
2021/08/03 08:17:59;;;;;;;3.27;1.10;;;;;;;26.06;62.54;100520.00;5155001;28;20033;-79
2021/08/03 08:20:29;;;;;;;3.70;1.25;;;;;;;25.90;61.90;100528.75;5154716;28;20270;-79
2021/08/03 08:22:59;;;;;;;2.77;1.10;;;;;;;26.34;59.52;100525.09;5155047;28;20034;-79
2021/08/03 08:25:30;;;;;;;3.53;1.20;;;;;;;26.68;59.60;100519.84;5156334;28;20155;-79
2021/08/03 08:28:00;;;;;;;5.38;1.27;;;;;;;24.92;63.02;100521.47;5154770;28;20031;-79
2021/08/03 08:30:30;;;;;;;3.67;1.10;;;;;;;24.26;67.55;100516.28;5153458;28;20508;-79
2021/08/03 08:33:01;;;;;;;2.10;1.10;;;;;;;26.16;62.12;100507.38;5153952;28;20030;-78
2021/08/03 08:35:31;;;;;;;3.78;1.38;;;;;;;25.10;64.96;100508.16;5154099;28;20066;-79
2021/08/03 08:38:03;;;;;;;7.18;1.50;;;;;;;27.79;58.31;100496.19;5156082;28;20034;-79
2021/08/03 08:40:33;;;;;;;3.38;1.20;;;;;;;27.12;58.50;100504.34;5156280;28;20444;-78
2021/08/03 08:43:04;;;;;;;5.28;1.10;;;;;;;25.11;64.20;100504.53;5153158;28;20022;-78
2021/08/03 08:45:34;;;;;;;2.92;1.15;;;;;;;23.45;66.20;100509.56;5152981;28;20031;-78
2021/08/03 08:48:06;;;;;;;2.70;1.10;;;;;;;24.67;65.71;100506.06;5154188;28;20047;-78
2021/08/03 08:50:37;;;;;;;6.47;1.10;;;;;;;24.73;66.32;100499.31;5153824;28;20560;-79
2021/08/03 08:53:08;;;;;;;1.77;0.73;;;;;;;27.38;59.57;100490.84;5153925;28;20058;-79
2021/08/03 08:55:38;;;;;;;3.85;1.20;;;;;;;27.99;58.01;100485.97;5155963;28;20065;-79
2021/08/03 08:58:08;;;;;;;3.22;1.20;;;;;;;27.82;55.03;100487.78;5155163;28;20464;-79
2021/08/03 09:00:38;;;;;;;3.80;1.10;;;;;;;26.71;55.72;100490.03;5153806;28;20093;-79
2021/08/03 09:03:09;;;;;;;3.33;0.90;;;;;;;27.57;55.74;100480.69;5149150;28;20888;-79
2021/08/03 09:05:39;;;;;;;5.87;1.23;;;;;;;26.67;59.62;100491.34;5151483;28;20031;-79
2021/08/03 09:08:10;;;;;;;3.75;1.30;;;;;;;27.64;56.45;100484.38;5151098;28;20062;-79
2021/08/03 09:10:43;;;;;;;3.45;1.10;;;;;;;26.61;60.76;100484.78;5152106;28;20085;-79
2021/08/03 09:13:20;;;;;;;4.53;1.50;;;;;;;27.13;58.87;100481.03;5151558;28;20030;-79
2021/08/03 09:16:01;;;;;;;5.00;1.60;;;;;;;27.16;58.42;100478.88;5146993;28;20275;-78
2021/08/03 09:18:45;;;;;;;5.07;2.17;;;;;;;25.98;55.77;100474.38;5152826;28;20027;-78
2021/08/03 09:21:18;;;;;;;3.42;1.80;;;;;;;25.95;59.47;100480.03;5148890;28;20023;-78
2021/08/03 09:23:54;;;;;;;5.50;2.42;;;;;;;25.34;58.68;100473.72;5151695;28;20086;-78
2021/08/03 09:26:41;;;;;;;4.43;1.90;;;;;;;26.51;57.60;100478.66;5153586;28;20046;-78
2021/08/03 09:29:13;;;;;;;6.00;2.25;;;;;;;24.43;59.58;100483.47;5157555;28;20057;-78
2021/08/03 09:31:56;;;;;;;5.13;2.03;;;;;;;25.24;59.99;100484.47;5155074;28;20026;-78
2021/08/03 09:34:26;;;;;;;7.82;1.80;;;;;;;25.34;60.20;100481.75;5154631;28;20031;-78
2021/08/03 09:36:58;;;;;;;6.53;1.98;;;;;;;25.16;62.53;100480.81;5154367;28;20393;-78
2021/08/03 09:39:40;;;;;;;5.68;2.50;;;;;;;24.69;63.87;100486.41;5155868;28;20559;-78
2021/08/03 09:42:22;;;;;;;5.28;2.40;;;;;;;24.53;60.32;100476.28;5155100;28;20041;-78
2021/08/03 09:44:58;;;;;;;5.97;3.00;;;;;;;24.19;61.76;100469.72;5154621;28;20033;-78
2021/08/03 09:47:30;;;;;;;4.72;2.83;;;;;;;24.42;59.43;100478.28;5151337;28;20551;-78
2021/08/03 09:50:08;;;;;;;8.18;3.00;;;;;;;24.29;60.34;100475.06;5149304;28;20065;-78
2021/08/03 09:52:42;;;;;;;3.50;2.00;;;;;;;24.87;61.99;100477.44;5149447;28;20026;-78
2021/08/03 09:55:17;;;;;;;4.15;1.60;;;;;;;24.57;62.69;100477.69;5152426;28;20026;-78
2021/08/03 09:57:48;;;;;;;5.20;2.00;;;;;;;23.82;64.07;100468.78;5149848;28;20074;-78
2021/08/03 10:00:36;;;;;;;3.35;1.80;;;;;;;23.94;63.79;100467.66;5147818;28;20520;-78
2021/08/03 10:03:07;;;;;;;5.18;2.40;;;;;;;23.14;62.87;100468.78;5145067;28;20031;-78
2021/08/03 10:05:39;;;;;;;4.70;2.27;;;;;;;23.31;64.25;100465.47;5149293;28;20081;-78
2021/08/03 10:08:11;;;;;;;4.28;1.48;;;;;;;23.37;64.05;100467.56;5151267;28;20294;-78
2021/08/03 10:10:43;;;;;;;3.17;1.40;;;;;;;22.83;67.18;100463.63;5150300;28;20037;-78
2021/08/03 10:13:13;;;;;;;4.60;1.70;;;;;;;22.68;68.99;100457.78;5153327;28;20105;-78
2021/08/03 10:15:45;;;;;;;3.50;1.30;;;;;;;22.95;68.63;100460.72;5143469;28;20028;-78
2021/08/03 10:18:15;;;;;;;2.97;1.45;;;;;;;22.87;68.04;100457.03;5153187;28;20053;-78
2021/08/03 10:20:47;;;;;;;6.72;1.65;;;;;;;23.06;67.84;100457.91;5152195;28;20622;-79
2021/08/03 10:23:19;;;;;;;5.05;1.70;;;;;;;22.55;69.81;100456.31;5155345;28;20027;-78
2021/08/03 10:25:50;;;;;;;4.75;1.80;;;;;;;22.75;68.40;100453.63;5148894;28;20031;-77
2021/08/03 10:28:25;;;;;;;4.07;1.77;;;;;;;22.97;67.41;100452.56;5147678;28;20030;-78
2021/08/03 10:30:56;;;;;;;5.90;2.00;;;;;;;23.24;67.46;100447.47;5147958;28;20529;-78
2021/08/03 10:33:46;;;;;;;6.63;1.80;;;;;;;23.36;65.96;100454.38;5143288;28;20062;-78
2021/08/03 10:36:35;;;;;;;3.88;1.65;;;;;;;23.74;65.07;100447.22;5149296;28;20043;-78
2021/08/03 10:39:13;;;;;;;8.95;2.10;;;;;;;23.67;65.90;100447.97;5148353;28;20105;-78
2021/08/03 10:41:58;;;;;;;3.05;1.60;;;;;;;23.09;67.97;100443.47;5146962;28;20080;-78
2021/08/03 10:44:48;;;;;;;4.40;2.10;;;;;;;22.85;66.87;100446.50;5137273;28;20066;-78
2021/08/03 10:47:46;;;;;;;5.25;1.90;;;;;;;23.08;66.80;100439.97;5145711;28;20515;-78
2021/08/03 10:50:32;;;;;;;5.60;2.10;;;;;;;23.41;66.49;100436.13;5148290;28;20074;-78
2021/08/03 10:53:03;;;;;;;4.93;2.20;;;;;;;23.05;65.72;100436.75;5140516;28;20059;-78
2021/08/03 10:55:35;;;;;;;4.93;2.00;;;;;;;23.24;67.27;100437.66;5150030;28;20043;-78
2021/08/03 10:58:08;;;;;;;3.70;1.77;;;;;;;23.63;64.82;100433.19;5148280;28;20031;-78
2021/08/03 11:00:42;;;;;;;5.47;2.08;;;;;;;23.02;65.90;100424.50;5145812;28;20027;-79
2021/08/03 11:03:34;;;;;;;4.15;1.95;;;;;;;23.36;64.99;100428.53;5147638;28;20030;-78
2021/08/03 11:06:10;;;;;;;4.78;2.22;;;;;;;23.44;68.66;100434.03;5147988;28;20031;-78
2021/08/03 11:08:43;;;;;;;6.45;2.60;;;;;;;22.53;70.41;100436.97;5150094;28;20030;-78
2021/08/03 11:11:24;;;;;;;4.10;2.20;;;;;;;22.00;68.42;100438.03;5149086;28;20082;-78
2021/08/03 11:14:04;;;;;;;4.93;2.10;;;;;;;22.07;69.32;100428.53;5147326;28;20552;-78
2021/08/03 11:16:35;;;;;;;7.07;2.17;;;;;;;22.10;67.11;100432.78;5146413;28;20027;-78
2021/08/03 11:19:06;;;;;;;4.65;2.25;;;;;;;22.26;68.30;100433.16;5148941;28;20034;-78
2021/08/03 11:21:42;;;;;;;3.63;2.05;;;;;;;23.27;67.93;100429.38;5148524;28;20031;-78
2021/08/03 11:24:17;;;;;;;4.75;2.20;;;;;;;22.83;66.18;100434.28;5149041;28;20031;-78
2021/08/03 11:26:47;;;;;;;4.73;2.50;;;;;;;22.32;68.02;100433.47;5144411;28;20105;-78
2021/08/03 11:29:33;;;;;;;5.47;2.30;;;;;;;21.98;67.17;100431.13;5151896;28;20325;-78
2021/08/03 11:32:09;;;;;;;7.28;2.40;;;;;;;21.84;68.16;100428.78;5145532;28;20057;-78
2021/08/03 11:34:47;;;;;;;5.10;2.10;;;;;;;22.19;68.34;100427.50;5147043;28;20058;-78
2021/08/03 11:37:19;;;;;;;5.03;2.17;;;;;;;22.46;68.57;100418.97;5146781;28;20081;-78
2021/08/03 11:39:56;;;;;;;3.83;1.90;;;;;;;22.80;64.39;100414.06;5155131;28;20037;-78
2021/08/03 11:42:39;;;;;;;6.75;2.03;;;;;;;22.73;66.92;100418.28;5150201;28;20046;-78
2021/08/03 11:45:18;;;;;;;5.38;1.80;;;;;;;22.55;64.76;100416.34;5147988;28;20031;-78
2021/08/03 11:47:56;;;;;;;6.38;2.00;;;;;;;22.70;64.86;100407.84;5148284;28;20435;-78
2021/08/03 11:50:33;;;;;;;6.25;1.98;;;;;;;22.70;64.88;100407.03;5145996;28;20027;-78